Time;durP1;ratioP1;P1;durP2;ratioP2;P2;SDS_P1;SDS_P2;PMS_P1;PMS_P2;Temp;Humidity;BMP_temperature;BMP_pressure;BME280_temperature;BME280_humidity;BME280_pressure;Samples;Min_cycle;Max_cycle;Signal;HPM_P1;HPM_P2
2022/05/06 00:01:30;;;;;;;4.70;3.53;;;;;;;19.68;62.34;100924.16;5033682;28;20415;-59
2022/05/06 00:03:55;;;;;;;5.47;3.03;;;;;;;19.68;62.04;100929.91;5033985;28;20219;-59
2022/05/06 00:06:21;;;;;;;4.50;3.60;;;;;;;19.67;62.03;100926.19;5033090;28;20623;-59
2022/05/06 00:08:46;;;;;;;5.53;3.37;;;;;;;19.68;62.13;100925.00;5033839;28;20181;-59
2022/05/06 00:11:12;;;;;;;4.60;3.73;;;;;;;19.67;62.03;100929.06;5032861;28;20192;-59
2022/05/06 00:13:37;;;;;;;5.43;3.20;;;;;;;19.66;62.00;100921.66;5015728;28;21054;-59
2022/05/06 00:16:06;;;;;;;5.80;3.70;;;;;;;19.68;61.99;100927.03;5033283;28;20184;-59
2022/05/06 00:18:31;;;;;;;6.23;4.00;;;;;;;19.69;61.94;100929.53;5033636;28;20263;-59
2022/05/06 00:20:59;;;;;;;4.73;3.57;;;;;;;19.67;62.01;100922.50;5033218;28;20434;-59
2022/05/06 00:23:25;;;;;;;4.10;3.30;;;;;;;19.68;61.87;100922.16;5033586;28;20176;-60
2022/05/06 00:25:50;;;;;;;3.97;3.00;;;;;;;19.67;61.71;100917.59;5033154;28;20419;-60
2022/05/06 00:28:16;;;;;;;5.30;3.20;;;;;;;19.68;61.76;100919.28;5033064;28;20541;-59
2022/05/06 00:30:41;;;;;;;6.10;3.57;;;;;;;19.68;61.73;100913.56;5032800;28;20236;-59
2022/05/06 00:33:09;;;;;;;4.80;3.20;;;;;;;19.68;61.80;100913.56;5033347;28;20275;-59
2022/05/06 00:35:38;;;;;;;4.73;3.40;;;;;;;19.68;61.97;100915.56;5033468;28;20161;-59
2022/05/06 00:38:04;;;;;;;4.40;3.40;;;;;;;19.69;61.74;100914.38;5032687;28;20502;-59
2022/05/06 00:40:29;;;;;;;3.83;2.93;;;;;;;19.69;61.96;100917.22;5033029;28;20506;-59
2022/05/06 00:42:56;;;;;;;5.23;3.37;;;;;;;19.67;61.74;100911.88;5033269;28;20503;-59
2022/05/06 00:45:22;;;;;;;4.93;3.40;;;;;;;19.67;61.74;100909.00;5032675;28;20264;-59
2022/05/06 00:47:47;;;;;;;4.60;3.40;;;;;;;19.68;61.64;100912.72;5032894;28;20425;-59
2022/05/06 00:50:13;;;;;;;5.23;3.43;;;;;;;19.67;61.64;100905.31;5031111;28;20423;-59
2022/05/06 00:52:39;;;;;;;5.23;3.87;;;;;;;19.66;61.66;100909.41;5032606;28;20250;-59
2022/05/06 00:55:04;;;;;;;6.50;3.50;;;;;;;19.68;61.70;100915.56;5033000;28;20250;-59
2022/05/06 00:57:30;;;;;;;4.10;3.30;;;;;;;19.67;61.60;100906.13;5033041;28;20209;-59
2022/05/06 01:02:39;;;;;;;3.93;2.97;;;;;;;19.69;61.79;100908.63;5032742;28;20218;-59
2022/05/06 01:05:05;;;;;;;6.30;3.80;;;;;;;19.67;61.53;100903.28;5032589;28;20419;-59
2022/05/06 01:07:31;;;;;;;6.00;2.90;;;;;;;19.67;61.55;100900.41;5032655;28;20181;-59
2022/05/06 01:09:56;;;;;;;3.97;2.90;;;;;;;19.66;61.60;100904.47;5032539;28;20180;-59
2022/05/06 01:12:21;;;;;;;5.90;3.37;;;;;;;19.67;61.58;100894.69;5013989;28;20206;-59
2022/05/06 01:14:47;;;;;;;3.80;3.30;;;;;;;19.67;61.29;100894.69;5032274;28;20187;-59
2022/05/06 01:17:13;;;;;;;2.87;2.40;;;;;;;19.65;61.53;100897.09;5032161;28;20176;-59
2022/05/06 01:19:39;;;;;;;4.00;3.30;;;;;;;19.68;61.66;100902.09;5032493;28;20168;-59
2022/05/06 01:22:04;;;;;;;5.40;3.27;;;;;;;19.68;61.38;100899.22;5032382;28;20185;-59
2022/05/06 01:24:31;;;;;;;3.97;3.03;;;;;;;19.67;61.68;100897.53;5014786;28;20422;-59
2022/05/06 01:27:04;;;;;;;5.37;3.43;;;;;;;19.66;61.53;100892.22;5032179;28;20161;-59
2022/05/06 01:29:33;;;;;;;4.50;3.03;;;;;;;19.68;61.38;100902.09;5032151;28;20561;-59
2022/05/06 01:31:59;;;;;;;4.67;2.80;;;;;;;19.67;61.53;100897.53;5031869;28;20470;-59
2022/05/06 01:34:27;;;;;;;4.20;3.00;;;;;;;19.66;61.44;100892.22;5014428;28;20443;-59
2022/05/06 01:36:53;;;;;;;4.83;3.50;;;;;;;19.65;61.50;100899.97;5031887;28;20191;-59
2022/05/06 01:39:20;;;;;;;6.23;3.63;;;;;;;19.65;61.53;100897.09;5032233;28;20446;-59
2022/05/06 01:41:46;;;;;;;5.57;3.20;;;;;;;19.66;61.59;100900.81;5032238;28;20410;-59
2022/05/06 01:44:13;;;;;;;4.33;2.90;;;;;;;19.65;61.54;100897.09;5032146;28;20423;-59
2022/05/06 01:46:39;;;;;;;3.87;3.07;;;;;;;19.65;61.23;100902.84;5032002;28;20211;-59
2022/05/06 01:49:04;;;;;;;4.20;2.93;;;;;;;19.65;61.50;100897.09;5014341;28;20423;-59
2022/05/06 01:51:30;;;;;;;4.30;3.30;;;;;;;19.66;61.43;100900.81;5031640;28;20654;-59
2022/05/06 01:53:55;;;;;;;3.37;2.83;;;;;;;19.64;61.43;100891.75;5032171;28;20180;-59
2022/05/06 01:56:21;;;;;;;4.10;2.90;;;;;;;19.65;61.33;100893.38;5030465;28;20172;-59
2022/05/06 01:58:47;;;;;;;3.80;3.40;;;;;;;19.65;61.47;100891.38;5031903;28;20231;-59
2022/05/06 02:01:12;;;;;;;3.50;3.10;;;;;;;19.64;61.62;100894.59;5031703;28;20175;-59
2022/05/06 02:06:22;;;;;;;4.17;2.93;;;;;;;19.63;61.30;100890.94;5012128;28;20652;-59
2022/05/06 02:08:47;;;;;;;4.40;2.93;;;;;;;19.62;61.41;100892.09;5012118;28;20510;-59
2022/05/06 02:11:13;;;;;;;6.13;3.10;;;;;;;19.62;61.55;100889.25;5011843;28;20205;-59
2022/05/06 02:13:39;;;;;;;5.20;3.00;;;;;;;19.63;61.62;100893.78;5012418;28;20235;-59
2022/05/06 02:16:04;;;;;;;4.00;3.10;;;;;;;19.63;61.33;100895.81;5028118;28;20239;-59
2022/05/06 02:18:30;;;;;;;3.50;2.63;;;;;;;19.64;61.40;100886.84;5031939;28;20333;-59
2022/05/06 02:20:59;;;;;;;4.37;3.00;;;;;;;19.63;61.40;100885.19;5031143;28;20175;-59
2022/05/06 02:23:25;;;;;;;3.63;2.77;;;;;;;19.62;61.43;100879.84;5035710;28;20176;-59
2022/05/06 02:25:50;;;;;;;4.00;3.03;;;;;;;19.60;61.53;100880.22;5035483;28;20526;-59
2022/05/06 02:28:16;;;;;;;3.90;3.17;;;;;;;19.62;61.40;100889.25;5035215;28;20176;-59
2022/05/06 02:33:26;;;;;;;3.50;2.93;;;;;;;19.63;61.25;100884.34;5035457;28;20612;-59
2022/05/06 02:35:52;;;;;;;4.30;2.87;;;;;;;19.60;61.52;100880.22;5035578;28;20962;-59
2022/05/06 02:38:19;;;;;;;3.57;2.63;;;;;;;19.60;61.27;100885.94;5035225;28;20437;-59
2022/05/06 02:40:45;;;;;;;3.60;2.57;;;;;;;19.62;61.30;100889.25;5035201;28;20176;-59
2022/05/06 02:43:10;;;;;;;3.60;2.80;;;;;;;19.62;61.20;100891.28;5035065;28;20826;-59
2022/05/06 02:45:35;;;;;;;3.40;2.40;;;;;;;19.61;61.26;100884.72;5034734;28;20183;-59
2022/05/06 02:48:01;;;;;;;6.20;3.00;;;;;;;19.59;61.42;100889.16;5035202;28;20169;-59
2022/05/06 02:50:27;;;;;;;3.53;3.03;;;;;;;19.59;61.19;100886.31;5035214;28;20555;-59
2022/05/06 02:52:52;;;;;;;3.30;2.47;;;;;;;19.59;61.63;100881.41;5034819;28;20651;-59
2022/05/06 02:55:18;;;;;;;4.03;2.33;;;;;;;19.60;61.16;100891.66;5034836;28;20179;-59
2022/05/06 02:57:44;;;;;;;3.90;2.77;;;;;;;19.59;61.49;100887.16;5034579;28;20181;-59
2022/05/06 03:00:09;;;;;;;2.50;2.10;;;;;;;19.58;61.36;100879.75;5035021;28;20179;-59
2022/05/06 03:02:35;;;;;;;3.80;2.80;;;;;;;19.59;61.46;100886.31;5034773;28;20184;-59
2022/05/06 03:05:00;;;;;;;3.27;2.80;;;;;;;19.58;61.65;100879.75;5034976;28;20592;-59
2022/05/06 03:07:26;;;;;;;3.77;2.63;;;;;;;19.58;61.16;100882.63;5034455;28;20180;-59
2022/05/06 03:09:54;;;;;;;3.30;2.40;;;;;;;19.58;61.20;100888.34;5034539;28;20180;-59
2022/05/06 03:12:22;;;;;;;3.33;2.60;;;;;;;19.59;61.44;100880.56;5034265;28;20722;-59
2022/05/06 03:14:47;;;;;;;3.87;2.80;;;;;;;19.57;61.36;100883.81;5034739;28;20423;-59
2022/05/06 03:17:13;;;;;;;4.70;2.60;;;;;;;19.57;61.38;100875.22;5034167;28;20546;-59
2022/05/06 03:19:38;;;;;;;3.50;2.67;;;;;;;19.57;61.27;100880.13;5034555;28;20537;-59
2022/05/06 03:22:04;;;;;;;6.40;3.10;;;;;;;19.58;61.46;100876.91;5034368;28;20180;-59
2022/05/06 03:24:29;;;;;;;3.40;2.70;;;;;;;19.57;61.43;100874.41;5016066;28;20575;-59
2022/05/06 03:26:55;;;;;;;4.00;2.90;;;;;;;19.57;61.58;100871.53;5033951;28;20176;-59
2022/05/06 03:29:20;;;;;;;3.10;2.43;;;;;;;19.59;61.44;100881.41;5033971;28;20252;-59
2022/05/06 03:31:45;;;;;;;4.20;3.00;;;;;;;19.55;61.20;100874.78;5032883;28;20568;-59
2022/05/06 03:34:11;;;;;;;5.17;2.70;;;;;;;19.56;61.33;100870.69;5033029;28;20246;-59
2022/05/06 03:36:39;;;;;;;3.50;2.60;;;;;;;19.58;61.23;100882.63;5033363;28;20180;-59
2022/05/06 03:39:05;;;;;;;4.73;2.80;;;;;;;19.57;61.21;100878.06;5033169;28;20187;-59
2022/05/06 03:41:30;;;;;;;3.00;2.53;;;;;;;19.56;61.37;100875.63;5032851;28;20791;-59
2022/05/06 03:43:56;;;;;;;3.47;2.37;;;;;;;19.55;61.46;100877.63;5033090;28;20283;-59
2022/05/06 03:46:21;;;;;;;4.23;2.57;;;;;;;19.56;61.28;100884.19;5033189;28;20180;-61
2022/05/06 03:48:47;;;;;;;3.80;2.90;;;;;;;19.56;61.20;100884.19;5015273;28;20240;-61
2022/05/06 03:51:21;;;;;;;3.83;2.90;;;;;;;19.56;61.14;100882.16;5033058;28;20201;-61
2022/05/06 03:53:54;;;;;;;3.90;2.50;;;;;;;19.56;61.33;100875.63;5031677;28;20176;-62
2022/05/06 03:56:22;;;;;;;4.13;2.50;;;;;;;19.55;61.66;100889.09;5030951;28;20458;-61
2022/05/06 03:58:48;;;;;;;5.80;2.90;;;;;;;19.54;61.32;100881.72;5031382;28;20435;-61
2022/05/06 04:01:13;;;;;;;3.60;2.83;;;;;;;19.55;61.53;100897.69;5031566;28;20418;-61
2022/05/06 04:03:39;;;;;;;3.20;2.37;;;;;;;19.54;61.38;100889.47;5031383;28;20427;-61
2022/05/06 04:06:05;;;;;;;3.60;2.50;;;;;;;19.54;61.50;100893.16;5031119;28;20176;-61
2022/05/06 04:08:32;;;;;;;2.90;2.43;;;;;;;19.54;61.64;100890.31;5032189;28;20531;-61
2022/05/06 04:10:57;;;;;;;4.20;2.97;;;;;;;19.52;61.20;100891.88;5032615;28;20181;-61
2022/05/06 04:13:23;;;;;;;2.70;2.13;;;;;;;19.54;61.16;100892.31;5032613;28;20823;-61
2022/05/06 04:15:49;;;;;;;2.80;2.20;;;;;;;19.54;61.22;100896.03;5032486;28;20243;-61
2022/05/06 04:18:15;;;;;;;3.37;2.53;;;;;;;19.51;61.25;100896.75;5032533;28;20180;-61
2022/05/06 04:23:31;;;;;;;5.13;3.00;;;;;;;19.53;61.25;100893.53;5031510;28;20183;-61
2022/05/06 04:25:58;;;;;;;4.30;2.97;;;;;;;19.52;61.17;100897.59;5014948;28;21131;-61
2022/05/06 04:28:24;;;;;;;3.30;2.80;;;;;;;19.52;61.37;100907.00;5030483;28;20431;-61
2022/05/06 04:30:52;;;;;;;4.40;2.40;;;;;;;19.53;61.28;100910.72;4993131;28;1143227;-61
2022/05/06 04:33:19;;;;;;;2.80;2.37;;;;;;;19.52;61.33;100907.00;5033045;28;20212;-62
2022/05/06 04:35:45;;;;;;;3.10;2.70;;;;;;;19.52;61.29;100907.00;5032798;28;20469;-61
2022/05/06 04:38:11;;;;;;;3.47;2.80;;;;;;;19.51;61.59;100916.81;5033099;28;20839;-61
2022/05/06 04:40:37;;;;;;;3.10;2.50;;;;;;;19.50;61.28;100909.44;5032728;28;20577;-61
2022/05/06 04:43:03;;;;;;;5.07;2.90;;;;;;;19.50;61.48;100912.28;5032762;28;20422;-61
2022/05/06 04:45:29;;;;;;;3.50;2.50;;;;;;;19.52;61.42;100912.72;5032334;28;20258;-61
2022/05/06 04:47:54;;;;;;;4.10;2.60;;;;;;;19.52;61.21;100920.50;5032835;28;20412;-61
2022/05/06 04:50:21;;;;;;;2.93;2.33;;;;;;;19.52;61.40;100921.31;5032791;28;20655;-61
2022/05/06 04:52:46;;;;;;;2.97;2.47;;;;;;;19.51;61.21;100924.59;5014973;28;20215;-61
2022/05/06 04:55:12;;;;;;;2.60;2.20;;;;;;;19.53;61.66;100927.91;5015641;28;20415;-61
2022/05/06 04:57:37;;;;;;;3.10;2.20;;;;;;;19.52;61.27;100937.69;5031960;28;20177;-61
2022/05/06 05:00:04;;;;;;;2.80;2.20;;;;;;;19.50;61.50;100931.50;5032261;28;20196;-61
2022/05/06 05:02:29;;;;;;;3.47;2.47;;;;;;;19.50;60.87;100929.47;5032556;28;20177;-60
2022/05/06 05:04:58;;;;;;;2.60;2.27;;;;;;;19.51;61.40;100936.84;5032323;28;20423;-60
2022/05/06 05:07:24;;;;;;;3.00;2.27;;;;;;;19.52;61.07;100929.91;5032326;28;20192;-60
2022/05/06 05:09:49;;;;;;;3.40;2.27;;;;;;;19.51;61.30;100936.03;5032599;28;20475;-60
2022/05/06 05:12:15;;;;;;;2.90;2.40;;;;;;;19.51;60.85;100936.03;5032262;28;20196;-60
2022/05/06 05:14:41;;;;;;;3.43;2.50;;;;;;;19.50;61.05;100935.19;5032224;28;20196;-60
2022/05/06 05:17:08;;;;;;;3.30;2.63;;;;;;;19.50;61.15;100940.94;5014810;28;20172;-61
2022/05/06 05:19:34;;;;;;;3.40;2.17;;;;;;;19.51;61.11;100936.03;5030933;28;20430;-61
2022/05/06 05:21:59;;;;;;;2.73;2.10;;;;;;;19.51;61.44;100938.91;5032199;28;20961;-62
2022/05/06 05:24:25;;;;;;;4.80;2.67;;;;;;;19.50;61.02;100934.34;5032233;28;20180;-60
2022/05/06 05:26:50;;;;;;;3.30;2.40;;;;;;;19.50;61.36;100938.06;5032299;28;20627;-61
2022/05/06 05:29:16;;;;;;;2.93;2.43;;;;;;;19.50;61.17;100945.81;5031963;28;20236;-61
2022/05/06 05:31:43;;;;;;;3.27;2.40;;;;;;;19.51;61.44;100936.03;5031987;28;20216;-61
2022/05/06 05:34:08;;;;;;;2.83;2.10;;;;;;;19.51;61.33;100938.91;5032013;28;20238;-61
2022/05/06 05:36:37;;;;;;;2.83;2.30;;;;;;;19.49;61.27;100947.03;5032291;28;20412;-60
2022/05/06 05:39:02;;;;;;;2.73;2.03;;;;;;;19.51;61.20;100941.78;5032122;28;20521;-60
2022/05/06 05:41:28;;;;;;;3.27;2.10;;;;;;;19.50;61.31;100945.81;5031909;28;20469;-60
2022/05/06 05:49:21;;;;;;;3.27;2.63;;;;;;;19.49;60.93;100939.28;5031857;28;20912;-60
2022/05/06 05:51:47;;;;;;;3.20;2.30;;;;;;;19.50;61.17;100940.09;5030410;28;20447;-60
2022/05/06 05:54:12;;;;;;;3.97;2.40;;;;;;;19.48;61.20;100946.22;5031856;28;20172;-60
2022/05/06 05:56:38;;;;;;;2.57;2.00;;;;;;;19.48;60.96;100943.34;5030855;28;20537;-61
2022/05/06 05:59:03;;;;;;;3.20;2.60;;;;;;;19.50;61.10;100934.34;5031326;28;20180;-61
2022/05/06 06:01:30;;;;;;;4.23;2.90;;;;;;;19.48;61.19;100943.34;5031250;28;20836;-61
2022/05/06 06:03:55;;;;;;;3.97;2.70;;;;;;;19.50;61.29;100945.81;5031665;28;20183;-60
2022/05/06 06:06:21;;;;;;;3.40;2.67;;;;;;;19.61;61.28;100942.00;5027249;28;20440;-61
2022/05/06 06:08:46;;;;;;;6.37;4.27;;;;;;;19.72;61.28;100948.81;5029575;28;20176;-61
2022/05/06 06:11:12;;;;;;;11.17;7.63;;;;;;;19.93;62.41;100949.34;5028843;28;20175;-61
2022/05/06 06:13:37;;;;;;;14.73;9.77;;;;;;;20.02;62.24;100946.25;5028275;28;20169;-61
2022/05/06 06:16:03;;;;;;;18.07;10.37;;;;;;;19.89;62.01;100942.69;5027854;28;20582;-62
2022/05/06 06:18:28;;;;;;;12.60;9.80;;;;;;;19.79;61.35;100953.91;5027465;28;20198;-61
2022/05/06 06:20:57;;;;;;;16.83;10.07;;;;;;;19.75;61.05;100950.94;5011061;28;20199;-60
2022/05/06 06:23:23;;;;;;;16.50;9.83;;;;;;;19.78;61.71;100952.25;5030294;28;20183;-60
2022/05/06 06:25:48;;;;;;;17.70;9.60;;;;;;;19.88;60.94;100958.22;5029427;28;20407;-60
2022/05/06 06:28:14;;;;;;;14.07;10.13;;;;;;;19.85;61.58;100961.84;5028589;28;20435;-62
2022/05/06 06:30:40;;;;;;;13.63;9.83;;;;;;;19.84;61.44;100957.31;5029173;28;20303;-61
2022/05/06 06:33:07;;;;;;;14.17;8.37;;;;;;;19.84;61.20;100967.94;5012337;28;20204;-60
2022/05/06 06:35:33;;;;;;;13.63;9.40;;;;;;;19.85;60.00;100970.44;5011821;28;20935;-61
2022/05/06 06:37:58;;;;;;;16.50;9.70;;;;;;;19.91;60.86;100968.13;5029729;28;20439;-61
2022/05/06 06:40:24;;;;;;;17.20;9.50;;;;;;;19.97;60.62;100961.69;5029074;28;20176;-61
2022/05/06 06:42:49;;;;;;;19.00;9.90;;;;;;;20.02;61.61;100966.31;5029488;28;20177;-61
2022/05/06 06:45:15;;;;;;;12.33;9.03;;;;;;;20.02;61.84;100963.44;5029990;28;20160;-61
2022/05/06 06:47:41;;;;;;;11.97;9.47;;;;;;;20.02;61.49;100970.00;5029150;28;20180;-62
2022/05/06 06:50:07;;;;;;;10.83;8.60;;;;;;;20.03;61.41;100967.97;5028318;28;20657;-62
2022/05/06 06:52:32;;;;;;;13.90;8.30;;;;;;;20.02;61.61;100967.13;5029250;28;20459;-61
2022/05/06 06:54:59;;;;;;;10.47;8.33;;;;;;;20.05;60.75;100971.28;5029955;28;20176;-61
2022/05/06 06:57:26;;;;;;;15.20;9.90;;;;;;;20.08;61.04;100968.56;5029597;28;20208;-61
2022/05/06 06:59:52;;;;;;;14.93;9.30;;;;;;;20.06;60.94;100968.03;5029271;28;20525;-61
2022/05/06 07:02:17;;;;;;;13.70;9.50;;;;;;;20.03;60.56;100971.69;5028781;28;20764;-61
2022/05/06 07:04:43;;;;;;;13.90;9.10;;;;;;;20.02;60.01;100969.19;5028779;28;20227;-61
2022/05/06 07:12:36;;;;;;;18.33;9.37;;;;;;;19.95;59.54;100975.56;5032257;28;20462;-61
2022/05/06 07:15:02;;;;;;;10.97;7.90;;;;;;;19.93;59.79;100978.00;5033112;28;20795;-61
2022/05/06 07:17:28;;;;;;;12.27;7.80;;;;;;;19.92;59.77;100961.97;5032514;28;20703;-61
2022/05/06 07:19:54;;;;;;;12.67;8.33;;;;;;;19.93;59.50;100971.41;5031900;28;20481;-61
2022/05/06 07:22:19;;;;;;;10.60;7.90;;;;;;;19.90;59.60;100967.28;5032768;28;20226;-62
2022/05/06 07:24:45;;;;;;;12.97;7.23;;;;;;;19.91;59.33;100974.66;5032901;28;20583;-61
2022/05/06 07:27:11;;;;;;;11.60;7.40;;;;;;;19.89;59.44;100968.47;5031630;28;20172;-61
2022/05/06 07:29:36;;;;;;;14.50;6.80;;;;;;;19.88;60.06;100981.16;5032165;28;20228;-61
2022/05/06 07:32:02;;;;;;;22.33;7.87;;;;;;;19.81;60.53;100980.97;5032819;28;20192;-61
2022/05/06 07:34:28;;;;;;;15.80;7.80;;;;;;;19.82;60.22;100976.09;5032713;28;20730;-61
2022/05/06 07:36:57;;;;;;;13.80;8.07;;;;;;;19.85;60.09;100979.03;5031835;28;20185;-61
2022/05/06 07:39:22;;;;;;;17.30;8.20;;;;;;;19.87;59.88;100976.59;5033275;28;20506;-61
2022/05/06 07:41:48;;;;;;;10.63;7.00;;;;;;;19.87;59.81;100973.75;5032854;28;20965;-61
2022/05/06 07:44:16;;;;;;;15.10;7.10;;;;;;;19.88;60.01;100974.56;5033645;28;20173;-61
2022/05/06 07:46:42;;;;;;;12.17;7.27;;;;;;;19.88;59.90;100972.56;5032102;28;20602;-61
2022/05/06 07:49:07;;;;;;;11.40;6.57;;;;;;;19.86;60.15;100972.09;5033376;28;20420;-61
2022/05/06 07:51:33;;;;;;;12.30;7.73;;;;;;;19.86;60.09;100977.81;5033410;28;20224;-61
2022/05/06 07:53:58;;;;;;;15.83;7.20;;;;;;;19.87;60.29;100978.66;5015351;28;20234;-61
2022/05/06 07:56:24;;;;;;;11.60;6.60;;;;;;;19.85;60.13;100979.03;5033077;28;20899;-62
2022/05/06 07:58:50;;;;;;;9.20;6.13;;;;;;;19.84;60.36;100979.38;5033478;28;20219;-61
2022/05/06 08:01:16;;;;;;;12.00;5.80;;;;;;;19.84;60.11;100977.38;5033615;28;20255;-61
2022/05/06 08:06:27;;;;;;;9.37;5.60;;;;;;;19.86;60.40;100980.69;5033526;28;20176;-61
2022/05/06 08:08:52;;;;;;;12.00;5.30;;;;;;;19.84;60.49;100985.13;5033561;28;20929;-61
2022/05/06 08:11:18;;;;;;;10.27;5.40;;;;;;;19.82;60.62;100981.81;5033070;28;20418;-61
2022/05/06 08:13:49;;;;;;;11.90;5.87;;;;;;;19.84;60.31;100982.25;5033591;28;20180;-61
2022/05/06 08:16:14;;;;;;;19.33;5.60;;;;;;;19.85;60.79;100998.25;5033682;28;20275;-61
2022/05/06 08:18:39;;;;;;;10.03;5.53;;;;;;;19.85;60.60;100998.25;5032777;28;20751;-61
2022/05/06 08:21:05;;;;;;;7.90;4.50;;;;;;;19.84;60.41;100994.56;5032802;28;20542;-60
2022/05/06 08:23:33;;;;;;;14.30;5.10;;;;;;;19.82;60.76;100999.00;5033389;28;20175;-60
2022/05/06 08:26:00;;;;;;;7.90;4.60;;;;;;;19.84;60.63;101003.16;5032655;28;20209;-61
2022/05/06 08:28:27;;;;;;;7.83;4.43;;;;;;;19.86;60.52;101006.47;5033348;28;20427;-61
2022/05/06 08:30:53;;;;;;;9.40;4.23;;;;;;;19.83;60.61;101001.50;5032776;28;20520;-61
2022/05/06 08:33:19;;;;;;;6.83;4.73;;;;;;;19.83;60.59;101001.50;5033095;28;20447;-61
2022/05/06 08:35:44;;;;;;;10.17;4.40;;;;;;;19.82;60.71;100996.94;5032460;28;20184;-61
2022/05/06 08:38:11;;;;;;;7.23;5.03;;;;;;;19.83;60.58;100994.94;5033144;28;20494;-61
2022/05/06 08:40:36;;;;;;;5.97;4.23;;;;;;;19.80;60.82;100993.63;5032575;28;20251;-61
2022/05/06 08:43:03;;;;;;;8.03;4.40;;;;;;;19.79;60.73;101000.56;5032677;28;20785;-61
2022/05/06 08:50:58;;;;;;;8.13;4.13;;;;;;;19.81;60.81;101003.88;5017621;28;20406;-61
2022/05/06 08:53:28;;;;;;;6.47;3.90;;;;;;;19.81;60.85;101001.03;5032718;28;20454;-61
2022/05/06 08:55:55;;;;;;;8.13;4.50;;;;;;;19.80;60.76;101002.22;5032011;28;20184;-61
2022/05/06 08:58:24;;;;;;;10.07;3.70;;;;;;;19.81;60.68;100997.34;5032781;28;20477;-61
2022/05/06 09:00:49;;;;;;;6.23;3.80;;;;;;;19.79;60.89;100996.88;5031680;28;20814;-61
2022/05/06 09:03:15;;;;;;;6.20;3.90;;;;;;;19.80;60.95;100999.38;5014835;28;20431;-61
2022/05/06 09:05:54;;;;;;;6.80;4.00;;;;;;;19.81;60.74;101003.06;5031895;28;20180;-61
2022/05/06 09:08:20;;;;;;;7.67;3.87;;;;;;;19.81;60.74;101008.81;5032548;28;20215;-61
2022/05/06 09:11:07;;;;;;;6.63;4.17;;;;;;;19.78;60.65;101016.13;5031903;28;20549;-61
2022/05/06 09:13:33;;;;;;;9.47;4.10;;;;;;;19.78;60.82;101018.97;5032434;28;20451;-61
2022/05/06 09:16:46;;;;;;;7.40;3.73;;;;;;;19.79;61.03;101019.78;5032620;28;20459;-61
2022/05/06 09:19:15;;;;;;;7.80;3.90;;;;;;;19.78;60.71;101006.69;5012727;28;20585;-61
2022/05/06 09:22:06;;;;;;;6.20;3.87;;;;;;;19.79;60.71;101016.94;5011551;28;20419;-61
2022/05/06 09:24:32;;;;;;;9.07;4.20;;;;;;;19.78;60.98;101015.28;5010573;28;20404;-61
2022/05/06 09:27:01;;;;;;;6.43;4.13;;;;;;;19.78;61.02;101021.00;5010396;28;20761;-61
2022/05/06 09:29:31;;;;;;;13.10;3.77;;;;;;;19.78;60.75;101024.72;5024634;28;20471;-61
2022/05/06 09:32:12;;;;;;;8.97;3.83;;;;;;;19.77;61.09;101020.16;5028452;28;20508;-61
2022/05/06 09:34:37;;;;;;;9.60;3.60;;;;;;;19.76;61.09;101021.38;5028027;28;20399;-61
2022/05/06 09:37:02;;;;;;;5.47;3.70;;;;;;;19.77;60.99;101019.34;5029341;28;20434;-61
2022/05/06 09:39:28;;;;;;;8.63;3.67;;;;;;;19.76;60.94;101018.50;5030984;28;20164;-61
2022/05/06 09:42:01;;;;;;;7.40;3.90;;;;;;;19.76;60.92;101018.50;5031767;28;20561;-61
2022/05/06 09:44:27;;;;;;;6.30;4.10;;;;;;;19.75;61.20;101022.56;5032248;28;20173;-61
2022/05/06 09:47:09;;;;;;;5.40;3.80;;;;;;;19.76;60.94;101009.91;5031725;28;20473;-61
2022/05/06 09:49:53;;;;;;;4.27;3.17;;;;;;;19.76;60.89;101014.81;5031701;28;20180;-61
2022/05/06 09:52:19;;;;;;;6.33;3.87;;;;;;;19.75;60.83;101022.56;5031818;28;20972;-61
2022/05/06 09:54:44;;;;;;;7.67;3.27;;;;;;;19.74;61.19;101026.66;5014131;28;20411;-62
2022/05/06 09:57:14;;;;;;;6.10;3.60;;;;;;;19.74;60.98;101018.06;5031577;28;20234;-61
2022/05/06 09:59:39;;;;;;;5.90;3.40;;;;;;;19.74;61.02;101015.19;5032054;28;20180;-60
2022/05/06 10:02:05;;;;;;;9.13;3.60;;;;;;;19.74;61.05;101009.47;5031483;28;20419;-61
2022/05/06 10:04:31;;;;;;;4.33;2.73;;;;;;;19.75;61.09;101016.00;5031819;28;20165;-61
2022/05/06 10:06:58;;;;;;;4.90;3.37;;;;;;;19.75;61.07;101016.84;5031505;28;20570;-61
2022/05/06 10:09:24;;;;;;;6.13;3.53;;;;;;;19.73;61.08;101013.53;5031874;28;20173;-61
2022/05/06 10:11:51;;;;;;;3.40;2.70;;;;;;;19.73;60.84;101012.69;5013734;28;20842;-60
2022/05/06 10:14:17;;;;;;;6.00;3.20;;;;;;;19.75;61.22;101021.72;5030779;28;20184;-60
2022/05/06 10:16:42;;;;;;;4.10;3.20;;;;;;;19.73;61.39;101019.25;5011720;28;20431;-60
2022/05/06 10:19:37;;;;;;;9.77;3.70;;;;;;;19.75;60.87;101016.00;5030230;28;20187;-61
2022/05/06 10:22:03;;;;;;;6.83;3.63;;;;;;;19.74;60.88;101014.34;5000767;28;20584;-61
2022/05/06 10:24:40;;;;;;;5.63;3.40;;;;;;;19.74;61.21;101009.47;5030032;28;20431;-61
2022/05/06 10:32:25;;;;;;;5.00;3.40;;;;;;;19.74;60.99;101009.47;5029969;28;20457;-61
2022/05/06 10:33:14;;;;;;;5.47;3.50;;;;;;;19.71;60.92;101015.91;5030909;28;20465;-61
2022/05/06 10:35:44;;;;;;;4.50;3.13;;;;;;;19.71;60.97;101018.78;5029662;28;20517;-61
2022/05/06 10:38:21;;;;;;;5.33;2.93;;;;;;;19.72;61.13;101017.56;5031142;28;20272;-61
2022/05/06 10:41:02;;;;;;;6.90;2.90;;;;;;;19.73;61.08;101012.69;5031655;28;20986;-62
2022/05/06 10:43:40;;;;;;;7.03;3.50;;;;;;;19.71;61.04;101018.78;5032567;28;20407;-62
2022/05/06 10:46:06;;;;;;;5.37;3.30;;;;;;;19.72;61.05;101006.13;5028252;28;20431;-62
2022/05/06 10:48:31;;;;;;;5.50;3.47;;;;;;;19.72;60.95;101000.38;5034217;28;20425;-61
2022/05/06 10:51:19;;;;;;;5.00;3.77;;;;;;;19.71;61.12;100998.72;5035031;28;20369;-61
2022/05/06 10:53:45;;;;;;;6.23;3.37;;;;;;;19.71;61.30;101004.47;5035077;28;20239;-61
2022/05/06 10:56:11;;;;;;;5.07;3.17;;;;;;;19.70;61.13;101005.66;5034354;28;20477;-61
2022/05/06 10:58:36;;;;;;;3.93;2.90;;;;;;;19.70;61.00;101002.81;5034862;28;20435;-61
2022/05/06 11:01:02;;;;;;;4.43;2.73;;;;;;;19.72;60.96;101000.38;5034224;28;20183;-61
2022/05/06 11:03:27;;;;;;;4.43;2.77;;;;;;;19.72;61.00;100994.66;5033331;28;20176;-61
2022/05/06 11:05:53;;;;;;;4.37;3.00;;;;;;;19.70;60.95;100993.38;5034756;28;20175;-61
2022/05/06 11:08:21;;;;;;;5.30;3.17;;;;;;;19.70;61.03;100984.78;5034687;28;20591;-61
2022/05/06 11:10:46;;;;;;;4.60;3.10;;;;;;;19.69;61.07;100989.69;5017408;28;20177;-61
2022/05/06 11:13:12;;;;;;;4.33;3.23;;;;;;;19.69;60.89;100983.97;5034158;28;20968;-61
2022/05/06 11:15:37;;;;;;;5.37;2.77;;;;;;;19.69;60.98;100983.97;5034589;28;20168;-61
2022/05/06 11:18:04;;;;;;;8.40;3.47;;;;;;;19.70;61.15;100990.50;5034471;28;20177;-61
2022/05/06 11:20:35;;;;;;;5.33;3.27;;;;;;;19.70;60.96;100982.75;5034670;28;20172;-61
2022/05/06 11:23:04;;;;;;;8.77;2.93;;;;;;;19.68;60.97;100978.59;5034246;28;20414;-61
2022/05/06 11:25:34;;;;;;;4.30;3.00;;;;;;;19.68;60.98;100976.56;5034432;28;20427;-61
2022/05/06 11:28:01;;;;;;;4.70;2.70;;;;;;;19.69;61.04;100981.09;5034278;28;20827;-61
2022/05/06 11:30:27;;;;;;;3.87;2.97;;;;;;;19.68;61.23;100979.44;5034131;28;20477;-61
2022/05/06 11:33:00;;;;;;;5.40;2.97;;;;;;;19.68;61.05;100976.56;5034023;28;20530;-61
2022/05/06 11:35:47;;;;;;;6.43;2.90;;;;;;;19.69;61.16;100978.22;5016629;28;20983;-61
2022/05/06 11:38:13;;;;;;;4.50;3.27;;;;;;;19.70;60.86;100979.03;5033127;28;20772;-61
2022/05/06 11:40:39;;;;;;;3.50;2.80;;;;;;;19.68;61.08;100973.72;5034297;28;20507;-62
2022/05/06 11:43:19;;;;;;;5.03;3.30;;;;;;;19.70;60.73;100968.44;5034055;28;20241;-61
2022/05/06 11:48:45;;;;;;;6.80;2.97;;;;;;;19.71;60.73;100961.50;5034023;28;20976;-62
2022/05/06 11:51:12;;;;;;;4.77;2.97;;;;;;;19.71;61.23;100960.69;5032936;28;20429;-61
2022/05/06 11:53:40;;;;;;;3.60;2.50;;;;;;;19.71;60.75;100963.53;5032475;28;20458;-61
2022/05/06 11:56:05;;;;;;;4.70;2.97;;;;;;;19.73;60.80;100956.22;5033331;28;20451;-61
2022/05/06 11:58:32;;;;;;;3.77;2.90;;;;;;;19.71;60.69;100958.63;4999384;28;20438;-61
2022/05/06 12:00:57;;;;;;;4.87;2.73;;;;;;;19.71;60.83;100961.50;5033508;28;20173;-61